Time;durP1;ratioP1;P1;durP2;ratioP2;P2;SDS_P1;SDS_P2;PMS_P1;PMS_P2;Temp;Humidity;BMP_temperature;BMP_pressure;BME280_temperature;BME280_humidity;BME280_pressure;Samples;Min_cycle;Max_cycle;Signal;HPM_P1;HPM_P2
2023/11/09 00:02:27;;;;;;;2.35;0.57;;;;;;;;;;5049221;28;20159;-64
2023/11/09 00:04:54;;;;;;;1.80;0.50;;;;;;;;;;5051237;28;20064;-63
2023/11/09 00:07:23;;;;;;;2.28;0.80;;;;;;;;;;5070824;28;20341;-63
2023/11/09 00:09:52;;;;;;;0.80;0.70;;;;;;;;;;5067904;28;20137;-61
2023/11/09 00:12:20;;;;;;;1.98;0.77;;;;;;;;;;5073366;28;20131;-63
2023/11/09 00:14:48;;;;;;;2.00;0.80;;;;;;;;;;5052059;28;20141;-61
2023/11/09 00:17:15;;;;;;;1.88;0.68;;;;;;;;;;5060783;28;20063;-61
2023/11/09 00:19:42;;;;;;;1.88;0.60;;;;;;;;;;5074002;28;20057;-61
2023/11/09 00:22:09;;;;;;;2.25;0.52;;;;;;;;;;5037374;28;20056;-62
2023/11/09 00:24:36;;;;;;;1.23;0.60;;;;;;;;;;5031421;28;20059;-61
2023/11/09 00:27:03;;;;;;;1.65;0.70;;;;;;;;;;5035621;28;20085;-62
2023/11/09 00:29:33;;;;;;;2.15;0.65;;;;;;;;;;4981323;28;20288;-62
2023/11/09 00:32:00;;;;;;;1.42;0.70;;;;;;;;;;5051609;28;20099;-61
2023/11/09 00:34:27;;;;;;;0.68;0.50;;;;;;;;;;5047270;28;20076;-61
2023/11/09 00:36:53;;;;;;;0.93;0.50;;;;;;;;;;5017566;28;20049;-61
2023/11/09 00:39:22;;;;;;;0.80;0.50;;;;;;;;;;5013682;28;20124;-61
2023/11/09 00:41:48;;;;;;;0.93;0.50;;;;;;;;;;5031007;28;20099;-60
2023/11/09 00:44:15;;;;;;;0.88;0.60;;;;;;;;;;5033496;28;20056;-61
2023/11/09 00:46:43;;;;;;;0.98;0.60;;;;;;;;;;5031068;28;20159;-64
2023/11/09 00:49:09;;;;;;;1.08;0.70;;;;;;;;;;5048457;28;20142;-63
2023/11/09 00:51:36;;;;;;;1.35;0.90;;;;;;;;;;5058569;28;20044;-63
2023/11/09 00:54:03;;;;;;;1.85;0.73;;;;;;;;;;5060825;28;20083;-62
2023/11/09 00:56:30;;;;;;;1.02;0.65;;;;;;;;;;5043855;28;20049;-63
2023/11/09 00:58:57;;;;;;;0.82;0.70;;;;;;;;;;5034401;28;20150;-63
2023/11/09 01:01:23;;;;;;;1.40;0.63;;;;;;;;;;5038307;28;20048;-63
2023/11/09 01:03:52;;;;;;;2.90;1.05;;;;;;;;;;5038263;28;20041;-63
2023/11/09 01:06:21;;;;;;;;;;;;;;;;;;5037929;28;20059;-62
2023/11/09 01:08:48;;;;;;;3.22;0.50;;;;;;;;;;5023336;28;19924;-60
2023/11/09 01:11:22;;;;;;;0.63;0.63;;;;;;;;;;5037524;28;20087;-62
2023/11/09 01:13:48;;;;;;;0.77;0.70;;;;;;;;;;5037168;28;20059;-60
2023/11/09 01:16:15;;;;;;;0.95;0.55;;;;;;;;;;5038609;28;20049;-60
2023/11/09 01:18:42;;;;;;;1.92;0.80;;;;;;;;;;5063564;28;20041;-60
2023/11/09 01:21:10;;;;;;;5.90;0.90;;;;;;;;;;5035663;28;20126;-60
2023/11/09 01:23:36;;;;;;;1.15;0.57;;;;;;;;;;5038349;28;20060;-60
2023/11/09 01:26:03;;;;;;;0.63;0.57;;;;;;;;;;5036715;28;20064;-60
2023/11/09 01:28:30;;;;;;;1.17;0.65;;;;;;;;;;5031651;28;20068;-62
2023/11/09 01:30:56;;;;;;;0.43;0.43;;;;;;;;;;5067129;28;20128;-60
2023/11/09 01:33:23;;;;;;;2.10;0.88;;;;;;;;;;5037280;28;20099;-60
2023/11/09 01:35:50;;;;;;;0.63;0.60;;;;;;;;;;5039095;28;20057;-60
2023/11/09 01:38:21;;;;;;;1.25;0.70;;;;;;;;;;5037077;28;20080;-60
2023/11/09 01:40:52;;;;;;;1.33;0.80;;;;;;;;;;5029335;28;20060;-60
2023/11/09 01:43:19;;;;;;;1.30;0.80;;;;;;;;;;5038181;28;20068;-60
2023/11/09 01:45:50;;;;;;;15.23;1.25;;;;;;;;;;5037292;28;20084;-60
2023/11/09 01:48:18;;;;;;;0.65;0.50;;;;;;;;;;5038367;28;20262;-60
2023/11/09 01:50:46;;;;;;;1.25;0.70;;;;;;;;;;5027626;28;20053;-60
2023/11/09 01:53:13;;;;;;;0.57;0.52;;;;;;;;;;5038400;28;20060;-61
2023/11/09 01:55:41;;;;;;;1.73;0.70;;;;;;;;;;5037214;28;20072;-61
2023/11/09 01:58:09;;;;;;;1.17;0.70;;;;;;;;;;5036379;28;20142;-61
2023/11/09 02:00:37;;;;;;;0.85;0.60;;;;;;;;;;5026663;28;20055;-61
2023/11/09 02:03:05;;;;;;;;;;;;;;;;;;5036158;28;20061;-60
2023/11/09 02:05:34;;;;;;;0.70;0.40;;;;;;;;;;5040145;28;19956;-60
2023/11/09 02:08:00;;;;;;;0.80;0.70;;;;;;;;;;5057764;28;20248;-60
2023/11/09 02:10:26;;;;;;;1.58;0.82;;;;;;;;;;5062379;28;20063;-64
2023/11/09 02:12:54;;;;;;;1.80;0.70;;;;;;;;;;5020364;28;20059;-62
2023/11/09 02:15:21;;;;;;;1.40;0.75;;;;;;;;;;5018264;28;20049;-62
2023/11/09 02:17:47;;;;;;;1.05;0.60;;;;;;;;;;5019229;28;20071;-62
2023/11/09 02:20:15;;;;;;;1.02;0.70;;;;;;;;;;5030786;28;20098;-62
2023/11/09 02:22:44;;;;;;;1.85;0.98;;;;;;;;;;5032875;28;20241;-62
2023/11/09 02:25:13;;;;;;;0.60;0.57;;;;;;;;;;5038296;28;20065;-62
2023/11/09 02:27:40;;;;;;;0.77;0.60;;;;;;;;;;5037993;28;20156;-60
2023/11/09 02:30:07;;;;;;;3.05;0.60;;;;;;;;;;5033281;28;20056;-60
2023/11/09 02:32:34;;;;;;;1.65;0.70;;;;;;;;;;5028606;28;20059;-61
2023/11/09 02:35:01;;;;;;;1.10;0.63;;;;;;;;;;5038800;28;20053;-60
2023/11/09 02:37:28;;;;;;;0.65;0.60;;;;;;;;;;5035750;28;20048;-61
2023/11/09 02:39:56;;;;;;;1.40;0.70;;;;;;;;;;5033899;28;20057;-60
2023/11/09 02:42:24;;;;;;;0.55;0.55;;;;;;;;;;5033364;28;20056;-64
2023/11/09 02:44:50;;;;;;;1.15;0.70;;;;;;;;;;5035127;28;20065;-60
2023/11/09 02:47:17;;;;;;;0.85;0.60;;;;;;;;;;5069796;28;20084;-60
2023/11/09 02:49:44;;;;;;;1.33;0.73;;;;;;;;;;5031151;28;20223;-60
2023/11/09 02:52:10;;;;;;;0.82;0.70;;;;;;;;;;5035199;28;20056;-60
2023/11/09 02:54:38;;;;;;;2.55;0.60;;;;;;;;;;5030934;28;20161;-60
2023/11/09 02:57:06;;;;;;;1.20;0.65;;;;;;;;;;5037003;28;20098;-60
2023/11/09 02:59:34;;;;;;;1.23;0.68;;;;;;;;;;5050206;28;20067;-60
2023/11/09 03:02:01;;;;;;;0.88;0.70;;;;;;;;;;5040810;28;20168;-62
2023/11/09 03:04:28;;;;;;;0.52;0.52;;;;;;;;;;4994030;28;20367;-60
2023/11/09 03:06:54;;;;;;;1.30;0.80;;;;;;;;;;5025549;28;20053;-62
2023/11/09 03:09:22;;;;;;;0.60;0.60;;;;;;;;;;5015012;28;20057;-62
2023/11/09 03:11:48;;;;;;;1.35;0.70;;;;;;;;;;5020389;28;20145;-62
2023/11/09 03:14:15;;;;;;;0.93;0.52;;;;;;;;;;5005467;28;20132;-60
2023/11/09 03:16:45;;;;;;;1.02;0.60;;;;;;;;;;5049902;28;20053;-60
2023/11/09 03:19:13;;;;;;;1.15;0.55;;;;;;;;;;5015182;28;20057;-60
2023/11/09 03:21:40;;;;;;;1.30;0.77;;;;;;;;;;5015712;28;20065;-62
2023/11/09 03:24:07;;;;;;;0.88;0.60;;;;;;;;;;5009172;28;20056;-66
2023/11/09 03:26:36;;;;;;;0.57;0.52;;;;;;;;;;5010811;28;20294;-62
2023/11/09 03:29:03;;;;;;;1.05;0.50;;;;;;;;;;5015751;28;20137;-61
2023/11/09 03:31:30;;;;;;;1.02;0.68;;;;;;;;;;5016163;28;20061;-62
2023/11/09 03:33:59;;;;;;;1.33;0.60;;;;;;;;;;5010516;28;20145;-62
2023/11/09 03:36:26;;;;;;;0.60;0.60;;;;;;;;;;5007180;28;20159;-63
2023/11/09 03:38:52;;;;;;;0.50;0.50;;;;;;;;;;5048669;28;20049;-63
2023/11/09 03:41:19;;;;;;;0.80;0.60;;;;;;;;;;5015854;28;20088;-62
2023/11/09 03:43:46;;;;;;;0.60;0.60;;;;;;;;;;5012749;28;20182;-62
2023/11/09 03:46:13;;;;;;;0.52;0.52;;;;;;;;;;5029424;28;20061;-63
2023/11/09 03:48:40;;;;;;;0.85;0.68;;;;;;;;;;5037579;28;20063;-62
2023/11/09 03:51:08;;;;;;;0.88;0.60;;;;;;;;;;5039342;28;20106;-60
2023/11/09 03:53:36;;;;;;;1.50;0.80;;;;;;;;;;5060208;28;20060;-60
2023/11/09 03:56:03;;;;;;;1.00;0.60;;;;;;;;;;5054976;28;20061;-60
2023/11/09 03:58:30;;;;;;;0.85;0.60;;;;;;;;;;5071173;28;21742;-61
2023/11/09 04:00:57;;;;;;;1.52;0.70;;;;;;;;;;5036398;28;20131;-60
2023/11/09 04:03:24;;;;;;;1.15;0.80;;;;;;;;;;4989078;28;20062;-60
2023/11/09 04:05:50;;;;;;;0.80;0.70;;;;;;;;;;4972353;28;20237;-60
2023/11/09 04:08:19;;;;;;;0.57;0.57;;;;;;;;;;4958310;28;20062;-60
2023/11/09 04:10:46;;;;;;;1.00;0.70;;;;;;;;;;4993561;28;20055;-60
2023/11/09 04:13:13;;;;;;;1.40;0.73;;;;;;;;;;4959573;28;20054;-60
2023/11/09 04:15:40;;;;;;;1.58;0.80;;;;;;;;;;4993471;28;20058;-59
2023/11/09 04:18:07;;;;;;;1.85;1.00;;;;;;;;;;4955301;28;20058;-60
2023/11/09 04:20:33;;;;;;;1.77;0.80;;;;;;;;;;4979694;28;20054;-60
2023/11/09 04:23:00;;;;;;;1.00;0.77;;;;;;;;;;4961242;28;20108;-60
2023/11/09 04:25:29;;;;;;;1.73;0.90;;;;;;;;;;4956289;28;20127;-60
2023/11/09 04:27:56;;;;;;;5.97;1.10;;;;;;;;;;4978758;28;20077;-59
2023/11/09 04:30:28;;;;;;;1.15;0.80;;;;;;;;;;4970449;28;20062;-60
2023/11/09 04:32:57;;;;;;;1.73;1.00;;;;;;;;;;4960943;28;20050;-60
2023/11/09 04:35:25;;;;;;;2.97;1.25;;;;;;;;;;4958224;28;20047;-60
2023/11/09 04:37:54;;;;;;;5.60;1.30;;;;;;;;;;4961831;28;20054;-60
2023/11/09 04:40:22;;;;;;;1.77;1.15;;;;;;;;;;4953474;28;20428;-60
2023/11/09 04:42:53;;;;;;;2.10;1.13;;;;;;;;;;4978408;28;20054;-60
2023/11/09 04:45:19;;;;;;;2.63;1.30;;;;;;;;;;4994598;28;20058;-60
2023/11/09 04:47:55;;;;;;;2.35;1.25;;;;;;;;;;4959108;28;20050;-60
2023/11/09 04:50:28;;;;;;;2.60;1.20;;;;;;;;;;4952727;28;20066;-60
2023/11/09 04:53:03;;;;;;;2.50;1.42;;;;;;;;;;4976383;28;20184;-60
2023/11/09 04:55:42;;;;;;;2.78;1.40;;;;;;;;;;4974450;28;20073;-59
2023/11/09 05:09:08;;;;;;;2.28;0.90;;;;;;;;;;4984690;28;20133;-60
2023/11/09 05:11:34;;;;;;;2.42;1.00;;;;;;;;;;4976936;28;20090;-60
2023/11/09 05:14:03;;;;;;;1.70;1.05;;;;;;;;;;5039741;28;20059;-60
2023/11/09 05:16:29;;;;;;;2.45;1.02;;;;;;;;;;4970102;28;20082;-60
2023/11/09 05:18:56;;;;;;;2.88;1.23;;;;;;;;;;4977709;28;20158;-60
2023/11/09 05:21:23;;;;;;;1.73;1.00;;;;;;;;;;4976960;28;20077;-60
2023/11/09 05:23:49;;;;;;;3.45;1.40;;;;;;;;;;4972695;28;20242;-60
2023/11/09 05:26:16;;;;;;;3.35;1.30;;;;;;;;;;4971507;28;20050;-61
2023/11/09 05:28:43;;;;;;;4.32;1.40;;;;;;;;;;4974838;28;20050;-60
2023/11/09 05:31:11;;;;;;;7.30;1.60;;;;;;;;;;4978605;28;20086;-60
2023/11/09 05:33:38;;;;;;;3.53;1.58;;;;;;;;;;4972527;28;20115;-60
2023/11/09 05:36:07;;;;;;;4.10;1.80;;;;;;;;;;4974470;28;20062;-61
2023/11/09 05:38:34;;;;;;;4.40;1.83;;;;;;;;;;4971599;28;20128;-60
2023/11/09 05:41:00;;;;;;;4.40;1.70;;;;;;;;;;4976758;28;20541;-59
2023/11/09 05:43:28;;;;;;;5.20;1.75;;;;;;;;;;4967205;28;20050;-63
2023/11/09 05:45:54;;;;;;;5.63;1.85;;;;;;;;;;4972313;28;20054;-62
2023/11/09 05:48:23;;;;;;;4.70;2.35;;;;;;;;;;4969304;28;20066;-62
2023/11/09 05:50:50;;;;;;;5.63;2.30;;;;;;;;;;4972710;28;20054;-59
2023/11/09 05:53:18;;;;;;;4.57;1.83;;;;;;;;;;4971939;28;20086;-60
2023/11/09 05:55:44;;;;;;;3.53;1.88;;;;;;;;;;4969110;28;20055;-60
2023/11/09 05:58:11;;;;;;;16.88;5.15;;;;;;;;;;4968688;28;20120;-60
2023/11/09 06:00:38;;;;;;;13.20;6.38;;;;;;;;;;4971867;28;20461;-60
2023/11/09 06:03:05;;;;;;;6.80;2.90;;;;;;;;;;4972527;28;20082;-60
2023/11/09 06:05:40;;;;;;;4.38;2.15;;;;;;;;;;4966561;28;20083;-62
2023/11/09 06:08:11;;;;;;;6.10;2.47;;;;;;;;;;4972406;28;20057;-62
2023/11/09 06:10:39;;;;;;;7.38;2.70;;;;;;;;;;4954250;28;20104;-62
2023/11/09 06:13:05;;;;;;;6.43;2.28;;;;;;;;;;4968356;28;20059;-63
2023/11/09 06:15:32;;;;;;;4.20;2.05;;;;;;;;;;5029113;28;20054;-62
2023/11/09 06:17:59;;;;;;;11.00;3.58;;;;;;;;;;5041766;28;20050;-62
2023/11/09 06:20:26;;;;;;;9.52;2.40;;;;;;;;;;4966547;28;20058;-61
2023/11/09 06:22:54;;;;;;;8.15;2.17;;;;;;;;;;4974176;28;20059;-60
2023/11/09 06:25:23;;;;;;;6.22;2.17;;;;;;;;;;4970584;28;20086;-60
2023/11/09 06:27:51;;;;;;;7.13;2.08;;;;;;;;;;4976443;28;20073;-61
2023/11/09 06:30:17;;;;;;;4.55;1.83;;;;;;;;;;4968376;28;20050;-61
2023/11/09 06:32:44;;;;;;;4.97;2.30;;;;;;;;;;4977778;28;20062;-61
2023/11/09 06:35:13;;;;;;;5.28;2.53;;;;;;;;;;4970727;28;20170;-61
2023/11/09 06:37:45;;;;;;;4.35;1.88;;;;;;;;;;4975457;28;20050;-63
2023/11/09 06:40:16;;;;;;;5.57;2.10;;;;;;;;;;4973769;28;20058;-61
2023/11/09 06:42:43;;;;;;;3.42;1.65;;;;;;;;;;4975515;28;20069;-61
2023/11/09 06:45:11;;;;;;;3.08;1.60;;;;;;;;;;4962769;28;20050;-61
2023/11/09 06:47:39;;;;;;;6.45;1.75;;;;;;;;;;4977461;28;20059;-61
2023/11/09 06:50:12;;;;;;;5.72;2.10;;;;;;;;;;4972381;28;20066;-62
2023/11/09 06:52:40;;;;;;;4.78;2.08;;;;;;;;;;4974982;28;20054;-62
2023/11/09 06:55:07;;;;;;;7.20;3.10;;;;;;;;;;4967507;28;20054;-62
2023/11/09 06:57:36;;;;;;;7.22;3.05;;;;;;;;;;4979019;28;20398;-62
2023/11/09 07:00:06;;;;;;;6.75;2.20;;;;;;;;;;4977487;28;20115;-61
2023/11/09 07:02:33;;;;;;;3.70;1.80;;;;;;;;;;4950437;28;20051;-62
2023/11/09 07:05:00;;;;;;;5.25;1.80;;;;;;;;;;4962166;28;20060;-61
2023/11/09 07:07:27;;;;;;;4.03;1.83;;;;;;;;;;4959038;28;20070;-61
2023/11/09 07:09:54;;;;;;;5.38;2.33;;;;;;;;;;4954149;28;20058;-64
2023/11/09 07:12:20;;;;;;;6.22;2.47;;;;;;;;;;4951630;28;20062;-61
2023/11/09 07:14:48;;;;;;;9.20;3.80;;;;;;;;;;4950405;28;20059;-61
2023/11/09 07:17:15;;;;;;;7.32;2.47;;;;;;;;;;4956615;28;20055;-62
2023/11/09 07:19:47;;;;;;;9.43;2.40;;;;;;;;;;4989153;28;20104;-62
2023/11/09 07:22:14;;;;;;;6.22;2.13;;;;;;;;;;4987731;28;20059;-63
2023/11/09 07:24:42;;;;;;;7.18;2.17;;;;;;;;;;4944595;28;20193;-63
2023/11/09 07:27:09;;;;;;;8.10;2.25;;;;;;;;;;4958775;28;20058;-61
2023/11/09 07:29:36;;;;;;;7.15;2.65;;;;;;;;;;4959801;28;20112;-61
2023/11/09 07:32:05;;;;;;;8.27;2.47;;;;;;;;;;4958676;28;20070;-62
2023/11/09 07:34:32;;;;;;;5.57;2.10;;;;;;;;;;4952091;28;20145;-62
2023/11/09 07:37:01;;;;;;;7.00;2.22;;;;;;;;;;4975371;28;20087;-62
2023/11/09 07:39:28;;;;;;;8.30;1.70;;;;;;;;;;4962197;28;20046;-61
2023/11/09 07:41:55;;;;;;;6.95;1.73;;;;;;;;;;4959166;28;20079;-62
2023/11/09 07:44:22;;;;;;;6.28;1.90;;;;;;;;;;4921389;28;20086;-62
2023/11/09 07:46:50;;;;;;;8.98;2.22;;;;;;;;;;4950458;28;20074;-62
2023/11/09 07:49:18;;;;;;;19.83;5.80;;;;;;;;;;4956996;28;20066;-61
2023/11/09 07:51:45;;;;;;;10.85;3.78;;;;;;;;;;4957856;28;20054;-61
2023/11/09 07:54:12;;;;;;;7.70;2.28;;;;;;;;;;4952129;28;20062;-61
2023/11/09 07:56:39;;;;;;;5.97;2.13;;;;;;;;;;4961048;28;20054;-62
2023/11/09 07:59:06;;;;;;;6.72;2.50;;;;;;;;;;4957536;28;20074;-62
2023/11/09 08:01:33;;;;;;;9.98;2.83;;;;;;;;;;4964922;28;20065;-63
2023/11/09 08:03:59;;;;;;;9.75;3.60;;;;;;;;;;4989912;28;20088;-62
2023/11/09 08:06:27;;;;;;;10.82;4.70;;;;;;;;;;4965401;28;20157;-61
2023/11/09 08:08:54;;;;;;;13.27;3.88;;;;;;;;;;4981223;28;20061;-62
2023/11/09 08:11:21;;;;;;;9.75;4.00;;;;;;;;;;4980809;28;20058;-62
2023/11/09 08:13:47;;;;;;;13.30;3.53;;;;;;;;;;5039549;28;20111;-62
2023/11/09 08:16:14;;;;;;;6.25;2.85;;;;;;;;;;5041588;28;20086;-62
2023/11/09 08:18:42;;;;;;;8.38;2.95;;;;;;;;;;5047338;28;20050;-62
2023/11/09 08:21:09;;;;;;;9.02;3.28;;;;;;;;;;5050047;28;20074;-62
2023/11/09 08:23:37;;;;;;;9.52;3.45;;;;;;;;;;4980104;28;20050;-63
2023/11/09 08:26:04;;;;;;;10.65;3.53;;;;;;;;;;5044124;28;20115;-62
2023/11/09 08:28:31;;;;;;;10.23;3.75;;;;;;;;;;5038838;28;20058;-62
2023/11/09 08:30:58;;;;;;;10.15;3.45;;;;;;;;;;4977604;28;20321;-62
2023/11/09 08:33:25;;;;;;;9.60;3.38;;;;;;;;;;5044729;28;20126;-62
2023/11/09 08:35:53;;;;;;;10.68;3.70;;;;;;;;;;4975993;28;20119;-63
2023/11/09 08:38:19;;;;;;;15.90;4.30;;;;;;;;;;5038772;28;20086;-62
2023/11/09 08:40:48;;;;;;;7.53;3.55;;;;;;;;;;5045183;28;20157;-62
2023/11/09 08:43:15;;;;;;;10.80;3.67;;;;;;;;;;5028570;28;20063;-62
2023/11/09 08:45:43;;;;;;;8.60;3.65;;;;;;;;;;4974961;28;20062;-62
2023/11/09 08:48:12;;;;;;;11.98;4.43;;;;;;;;;;4953740;28;20062;-62
2023/11/09 08:50:41;;;;;;;8.43;4.00;;;;;;;;;;4991637;28;20482;-62
2023/11/09 08:53:08;;;;;;;11.57;3.53;;;;;;;;;;4961898;28;20068;-62
2023/11/09 08:55:35;;;;;;;9.60;3.75;;;;;;;;;;4956758;28;20125;-62
2023/11/09 08:58:04;;;;;;;12.27;3.60;;;;;;;;;;4991497;28;20078;-62
2023/11/09 09:00:32;;;;;;;;;;;;;;;;;;4971040;28;20085;-62
2023/11/09 09:03:01;;;;;;;7.60;2.95;;;;;;;;;;4978529;28;19932;-62
2023/11/09 09:05:29;;;;;;;10.85;3.03;;;;;;;;;;4976659;28;20056;-62
2023/11/09 09:07:59;;;;;;;12.88;3.70;;;;;;;;;;4964202;28;20050;-62
2023/11/09 09:10:27;;;;;;;12.98;4.65;;;;;;;;;;4947778;28;20216;-62
2023/11/09 09:12:56;;;;;;;15.50;4.28;;;;;;;;;;4958104;28;20067;-63
2023/11/09 09:15:27;;;;;;;12.77;3.75;;;;;;;;;;4983695;28;20055;-62
2023/11/09 09:17:55;;;;;;;16.88;4.30;;;;;;;;;;4960473;28;20123;-62
2023/11/09 09:20:23;;;;;;;10.10;3.83;;;;;;;;;;4950967;28;20055;-62
2023/11/09 09:22:52;;;;;;;13.55;3.97;;;;;;;;;;4956457;28;20169;-62
2023/11/09 09:25:22;;;;;;;9.10;3.90;;;;;;;;;;4951196;28;20057;-62
2023/11/09 09:27:50;;;;;;;12.43;4.32;;;;;;;;;;4956270;28;20058;-62
2023/11/09 09:30:18;;;;;;;16.45;4.38;;;;;;;;;;4949564;28;20066;-62
2023/11/09 09:32:47;;;;;;;12.65;3.95;;;;;;;;;;4957056;28;20046;-61
2023/11/09 09:35:14;;;;;;;17.40;4.50;;;;;;;;;;4950460;28;20142;-62
2023/11/09 09:37:46;;;;;;;14.52;4.45;;;;;;;;;;4956507;28;20063;-61
2023/11/09 09:40:18;;;;;;;12.82;5.07;;;;;;;;;;4951971;28;20125;-63
2023/11/09 09:42:46;;;;;;;16.15;4.55;;;;;;;;;;4958428;28;20054;-62
2023/11/09 09:45:16;;;;;;;12.80;4.67;;;;;;;;;;4923969;28;20127;-62
2023/11/09 09:47:45;;;;;;;14.38;4.50;;;;;;;;;;4953691;28;20150;-62
2023/11/09 09:50:14;;;;;;;16.85;4.72;;;;;;;;;;4981560;28;20159;-62
2023/11/09 09:52:46;;;;;;;13.35;4.50;;;;;;;;;;4954304;28;20062;-61
2023/11/09 09:55:15;;;;;;;18.95;4.65;;;;;;;;;;4948202;28;20074;-62
2023/11/09 09:57:42;;;;;;;13.27;4.30;;;;;;;;;;4957406;28;20043;-63
2023/11/09 10:00:12;;;;;;;14.27;4.13;;;;;;;;;;4955570;28;20050;-62
2023/11/09 10:02:41;;;;;;;14.68;4.47;;;;;;;;;;4970262;28;20066;-62
2023/11/09 10:05:12;;;;;;;17.88;4.30;;;;;;;;;;4931342;28;20059;-62
2023/11/09 10:08:04;;;;;;;17.45;4.05;;;;;;;;;;4976312;28;20056;-61
2023/11/09 10:10:33;;;;;;;16.83;4.88;;;;;;;;;;4971763;28;20062;-61
2023/11/09 10:13:02;;;;;;;13.85;4.50;;;;;;;;;;4999073;28;20077;-63
2023/11/09 10:15:30;;;;;;;15.65;4.55;;;;;;;;;;4982929;28;20058;-63
2023/11/09 10:17:58;;;;;;;13.18;4.15;;;;;;;;;;4956580;28;20130;-61
2023/11/09 10:20:25;;;;;;;12.93;3.53;;;;;;;;;;4951708;28;20207;-64
2023/11/09 10:22:53;;;;;;;20.20;4.03;;;;;;;;;;4956475;28;20267;-61
2023/11/09 10:25:26;;;;;;;12.85;3.45;;;;;;;;;;4947438;28;20054;-61
2023/11/09 10:27:55;;;;;;;21.45;4.05;;;;;;;;;;4956914;28;20047;-64
2023/11/09 10:30:22;;;;;;;15.13;4.32;;;;;;;;;;4948033;28;20489;-61
2023/11/09 10:32:49;;;;;;;19.50;4.47;;;;;;;;;;4989999;28;20059;-61
2023/11/09 10:35:17;;;;;;;14.52;3.75;;;;;;;;;;4950359;28;20145;-62
2023/11/09 10:37:44;;;;;;;;;;;;;;;;;;4956211;28;20055;-62
2023/11/09 10:40:13;;;;;;;10.75;2.65;;;;;;;;;;4949829;28;19926;-62
2023/11/09 10:42:43;;;;;;;11.95;3.22;;;;;;;;;;4955828;28;20043;-61
2023/11/09 10:45:13;;;;;;;15.07;3.17;;;;;;;;;;4951634;28;20058;-62
2023/11/09 10:47:40;;;;;;;14.63;3.00;;;;;;;;;;4935419;29;20117;-62
2023/11/09 10:50:13;;;;;;;14.77;3.03;;;;;;;;;;4933148;28;20066;-61
2023/11/09 10:52:43;;;;;;;14.07;3.38;;;;;;;;;;4933423;28;20061;-61
2023/11/09 10:55:11;;;;;;;9.18;2.55;;;;;;;;;;4955331;28;20136;-63
2023/11/09 10:57:48;;;;;;;9.48;2.67;;;;;;;;;;4967151;28;20051;-61
2023/11/09 11:00:26;;;;;;;19.35;3.60;;;;;;;;;;4965746;28;20142;-62
2023/11/09 11:02:55;;;;;;;12.18;2.90;;;;;;;;;;4979018;28;20069;-61
2023/11/09 11:05:28;;;;;;;15.05;3.13;;;;;;;;;;4965107;28;20054;-62
2023/11/09 11:08:00;;;;;;;15.82;2.97;;;;;;;;;;4960494;28;20077;-62
2023/11/09 11:10:30;;;;;;;15.90;2.78;;;;;;;;;;4953437;28;20093;-60
2023/11/09 11:13:16;;;;;;;11.82;2.63;;;;;;;;;;4955070;28;20065;-61
2023/11/09 11:15:59;;;;;;;16.70;3.05;;;;;;;;;;4949976;28;20085;-62
2023/11/09 11:18:42;;;;;;;9.45;2.40;;;;;;;;;;4955552;28;20212;-61
2023/11/09 11:21:23;;;;;;;16.67;2.58;;;;;;;;;;4992621;28;20054;-60
2023/11/09 11:24:43;;;;;;;12.85;2.20;;;;;;;;;;4953796;28;20086;-61
2023/11/09 11:27:14;;;;;;;8.68;2.40;;;;;;;;;;4921688;28;20059;-61
2023/11/09 11:29:42;;;;;;;15.27;2.28;;;;;;;;;;4953346;28;20051;-61
2023/11/09 11:32:23;;;;;;;13.02;2.10;;;;;;;;;;4987435;28;20047;-62
2023/11/09 11:34:54;;;;;;;9.25;2.28;;;;;;;;;;4956207;28;20054;-62
2023/11/09 11:37:25;;;;;;;11.35;2.45;;;;;;;;;;4960969;28;20047;-61
2023/11/09 11:39:53;;;;;;;7.60;2.08;;;;;;;;;;4957811;28;20114;-61
2023/11/09 11:42:23;;;;;;;7.88;1.77;;;;;;;;;;4931680;28;20054;-61
2023/11/09 11:44:55;;;;;;;18.42;4.25;;;;;;;;;;4955332;28;20067;-62
2023/11/09 11:47:22;;;;;;;21.02;5.50;;;;;;;;;;4956792;28;20522;-61
2023/11/09 11:49:50;;;;;;;18.00;2.93;;;;;;;;;;4955307;28;20132;-61
2023/11/09 11:52:20;;;;;;;15.75;2.00;;;;;;;;;;4953224;28;20203;-61
2023/11/09 11:54:47;;;;;;;7.85;2.15;;;;;;;;;;4936462;28;20087;-61
2023/11/09 11:57:14;;;;;;;7.18;1.45;;;;;;;;;;4972047;28;20220;-60
2023/11/09 11:59:45;;;;;;;12.30;2.08;;;;;;;;;;4953713;28;20059;-61
2023/11/09 12:02:15;;;;;;;8.70;1.70;;;;;;;;;;4952370;28;20047;-61
2023/11/09 12:04:47;;;;;;;8.63;1.33;;;;;;;;;;4975509;28;20065;-61
2023/11/09 12:07:20;;;;;;;8.90;1.88;;;;;;;;;;5002631;28;20081;-61
2023/11/09 12:09:48;;;;;;;17.05;4.25;;;;;;;;;;4976828;28;20054;-61
2023/11/09 12:12:18;;;;;;;11.82;2.63;;;;;;;;;;4967997;28;20078;-61
2023/11/09 12:14:47;;;;;;;9.40;1.63;;;;;;;;;;4962510;28;20058;-63
2023/11/09 12:17:16;;;;;;;7.95;1.27;;;;;;;;;;4960006;28;20100;-61
2023/11/09 12:19:43;;;;;;;12.77;1.98;;;;;;;;;;4961757;28;20062;-61
2023/11/09 12:22:12;;;;;;;10.95;1.80;;;;;;;;;;4954152;28;20134;-61
2023/11/09 12:24:40;;;;;;;9.45;1.45;;;;;;;;;;4943848;28;20129;-61
2023/11/09 12:27:10;;;;;;;8.03;1.40;;;;;;;;;;4963032;28;20131;-61
2023/11/09 12:29:41;;;;;;;13.40;1.58;;;;;;;;;;4989387;28;20337;-61
2023/11/09 12:32:09;;;;;;;8.30;1.58;;;;;;;;;;4958283;28;20063;-60
2023/11/09 12:34:42;;;;;;;13.75;2.58;;;;;;;;;;4961668;28;20549;-61
2023/11/09 12:37:13;;;;;;;7.55;1.50;;;;;;;;;;4959921;28;20053;-63
2023/11/09 12:39:44;;;;;;;7.05;1.45;;;;;;;;;;4989754;28;20055;-61
2023/11/09 12:42:13;;;;;;;7.95;1.52;;;;;;;;;;4952981;28;20065;-61
2023/11/09 12:44:43;;;;;;;9.20;2.05;;;;;;;;;;4952354;28;20151;-61
2023/11/09 12:47:15;;;;;;;8.18;1.92;;;;;;;;;;4960919;28;20180;-61
2023/11/09 12:49:47;;;;;;;9.30;1.65;;;;;;;;;;4958879;28;20062;-61
2023/11/09 12:52:21;;;;;;;11.20;1.45;;;;;;;;;;4953160;28;20054;-61
2023/11/09 12:54:49;;;;;;;6.13;1.60;;;;;;;;;;4951573;28;20058;-61
2023/11/09 12:57:18;;;;;;;10.40;1.52;;;;;;;;;;4959967;28;20051;-61
2023/11/09 12:59:46;;;;;;;5.97;1.60;;;;;;;;;;4958851;28;20055;-61
2023/11/09 13:02:18;;;;;;;12.63;1.48;;;;;;;;;;4953612;28;20047;-61
2023/11/09 13:04:52;;;;;;;11.93;1.67;;;;;;;;;;4969952;28;20062;-60
2023/11/09 13:07:24;;;;;;;15.10;4.22;;;;;;;;;;4977450;28;20129;-61
2023/11/09 13:10:18;;;;;;;14.52;2.72;;;;;;;;;;4978299;28;20530;-61
2023/11/09 13:12:40;;;;;;;9.15;1.42;;;;;;;;;;4998209;28;20061;-62
2023/11/09 13:15:13;;;;;;;8.93;1.55;;;;;;;;;;4987127;28;20073;-61
2023/11/09 13:17:51;;;;;;;17.70;2.15;;;;;;;;;;4959872;28;20057;-61
2023/11/09 13:20:33;;;;;;;9.20;1.63;;;;;;;;;;4951564;28;20055;-62
2023/11/09 13:23:10;;;;;;;7.82;1.65;;;;;;;;;;4991228;28;20494;-61
2023/11/09 13:25:40;;;;;;;7.47;1.50;;;;;;;;;;4945643;28;20046;-61
2023/11/09 13:28:10;;;;;;;10.20;1.60;;;;;;;;;;4990491;28;20073;-62
2023/11/09 13:30:50;;;;;;;12.48;2.03;;;;;;;;;;4990527;28;20054;-61
2023/11/09 13:33:29;;;;;;;10.43;1.63;;;;;;;;;;4990791;28;20063;-62
2023/11/09 13:36:02;;;;;;;8.82;1.58;;;;;;;;;;4986369;28;20122;-61
2023/11/09 13:38:31;;;;;;;13.30;2.08;;;;;;;;;;4952124;28;20051;-61
2023/11/09 13:41:15;;;;;;;11.30;2.28;;;;;;;;;;4959882;28;20066;-61
2023/11/09 13:46:39;;;;;;;12.15;1.40;;;;;;;;;;4910696;28;20055;-61
2023/11/09 13:49:18;;;;;;;8.27;1.70;;;;;;;;;;4954587;28;20205;-61
2023/11/09 13:52:02;;;;;;;13.88;1.45;;;;;;;;;;4960954;28;20051;-61
2023/11/09 13:54:39;;;;;;;7.28;1.55;;;;;;;;;;4941331;28;20262;-61
2023/11/09 13:57:23;;;;;;;14.38;1.90;;;;;;;;;;4956874;28;20163;-61
2023/11/09 13:59:55;;;;;;;7.50;1.75;;;;;;;;;;4956472;28;20076;-61
2023/11/09 14:02:27;;;;;;;8.18;1.50;;;;;;;;;;5012819;28;20084;-61
2023/11/09 14:04:58;;;;;;;5.70;1.30;;;;;;;;;;4986101;28;20067;-61
2023/11/09 14:07:32;;;;;;;12.63;1.92;;;;;;;;;;5027568;28;20084;-61
2023/11/09 14:10:08;;;;;;;4.28;1.25;;;;;;;;;;5039129;28;20091;-61
2023/11/09 14:12:44;;;;;;;7.45;2.00;;;;;;;;;;5038608;28;20041;-61
2023/11/09 14:15:23;;;;;;;10.48;2.30;;;;;;;;;;5023968;28;20083;-61
2023/11/09 14:17:54;;;;;;;20.50;2.58;;;;;;;;;;5039405;28;20056;-61
2023/11/09 14:20:51;;;;;;;11.98;1.70;;;;;;;;;;5031128;28;20136;-61
2023/11/09 14:23:37;;;;;;;9.38;1.35;;;;;;;;;;5039494;28;20053;-61
2023/11/09 14:26:27;;;;;;;16.85;1.95;;;;;;;;;;5035180;28;20041;-61
2023/11/09 14:29:05;;;;;;;9.43;1.63;;;;;;;;;;5051416;28;20057;-61
2023/11/09 14:31:40;;;;;;;7.50;1.23;;;;;;;;;;5025827;28;20053;-62
2023/11/09 14:34:25;;;;;;;6.05;1.58;;;;;;;;;;4978342;28;20053;-61
2023/11/09 14:37:09;;;;;;;10.00;1.80;;;;;;;;;;5046241;28;20055;-61
2023/11/09 14:39:44;;;;;;;16.25;2.10;;;;;;;;;;5017685;28;20057;-61
2023/11/09 14:42:29;;;;;;;;;;;;;;;;;;;;;
2023/11/09 14:45:00;;;;;;;9.63;2.33;;;;;;;;;;5001328;28;20133;-63
2023/11/09 14:47:36;;;;;;;7.50;1.52;;;;;;;;;;5052215;28;20107;-62
2023/11/09 14:50:26;;;;;;;7.25;1.50;;;;;;;;;;5034739;28;20073;-61
2023/11/09 14:53:09;;;;;;;10.70;1.60;;;;;;;;;;5051960;28;20064;-62
2023/11/09 14:55:42;;;;;;;11.13;1.80;;;;;;;;;;4985503;28;20069;-62
2023/11/09 14:58:14;;;;;;;13.18;1.88;;;;;;;;;;5048467;28;20077;-62
2023/11/09 15:00:45;;;;;;;10.15;1.80;;;;;;;;;;5018035;28;20045;-62
2023/11/09 15:03:18;;;;;;;10.23;1.50;;;;;;;;;;4943881;28;20105;-62
2023/11/09 15:05:51;;;;;;;9.07;1.70;;;;;;;;;;4909827;28;20052;-61
2023/11/09 15:08:27;;;;;;;13.60;1.45;;;;;;;;;;4946152;28;20050;-61
2023/11/09 15:10:58;;;;;;;5.65;1.50;;;;;;;;;;4957518;28;20058;-62